createdAt,value
2019-05-03T00:00:13.692Z,30.13
2019-05-03T00:03:01.755Z,33.17
2019-05-03T00:05:41.772Z,31.73
2019-05-03T00:08:12.673Z,32.67
2019-05-03T00:10:42.700Z,32.60
2019-05-03T00:13:14.385Z,36.83
2019-05-03T00:15:54.838Z,37.33
2019-05-03T00:18:24.935Z,33.83
2019-05-03T00:20:54.864Z,30.57
2019-05-03T00:23:24.739Z,33.93
2019-05-03T00:25:54.603Z,34.33
2019-05-03T00:28:24.620Z,34.77
2019-05-03T00:30:54.574Z,32.77
2019-05-03T00:33:24.869Z,33.07
2019-05-03T00:36:13.134Z,34.53
2019-05-03T00:38:43.065Z,35.90
2019-05-03T00:41:13.080Z,34.90
2019-05-03T00:43:43.022Z,38.80
2019-05-03T00:46:14.059Z,36.87
2019-05-03T00:48:46.617Z,37.00
2019-05-03T00:51:17.453Z,37.73
2019-05-03T00:53:48.829Z,35.47
2019-05-03T00:56:18.760Z,35.27
2019-05-03T00:58:53.215Z,39.60
2019-05-03T01:01:23.233Z,38.73
2019-05-03T01:03:53.113Z,36.60
2019-05-03T01:06:24.251Z,37.17
2019-05-03T01:08:54.271Z,35.20
2019-05-03T01:11:24.144Z,38.00
2019-05-03T01:13:54.017Z,35.07
2019-05-03T01:16:25.519Z,35.80
2019-05-03T01:18:55.430Z,36.47
2019-05-03T01:21:25.301Z,36.80
2019-05-03T01:23:55.160Z,36.63
2019-05-03T01:26:25.045Z,36.73
2019-05-03T01:28:54.896Z,39.30
2019-05-03T01:31:24.853Z,36.73
2019-05-03T01:33:54.775Z,34.63
2019-05-03T01:36:24.644Z,37.53
2019-05-03T01:38:54.511Z,42.47
2019-05-03T01:41:24.390Z,38.20
2019-05-03T01:43:54.326Z,38.57
2019-05-03T01:46:24.264Z,38.17
2019-05-03T01:48:58.613Z,35.60
2019-05-03T01:51:45.159Z,41.33
2019-05-03T01:54:15.045Z,41.17
2019-05-03T01:56:56.001Z,37.97
2019-05-03T01:59:16.589Z,39.53
2019-05-03T02:01:54.224Z,39.17
2019-05-03T02:04:25.731Z,37.57
2019-05-03T02:06:56.747Z,39.87
2019-05-03T02:09:26.688Z,38.20
2019-05-03T02:11:56.556Z,44.47
2019-05-03T02:14:26.426Z,39.47
2019-05-03T02:16:57.939Z,41.87
2019-05-03T02:19:27.864Z,37.93
2019-05-03T02:21:57.807Z,36.80
2019-05-03T02:24:27.680Z,35.80
2019-05-03T02:26:57.544Z,40.50
2019-05-03T02:29:27.472Z,39.63
2019-05-03T02:31:57.424Z,38.70
2019-05-03T02:34:27.348Z,38.07
2019-05-03T02:36:57.313Z,37.07
2019-05-03T02:39:27.191Z,36.40
2019-05-03T02:42:02.929Z,36.73
2019-05-03T02:44:28.771Z,40.53
2019-05-03T02:47:18.342Z,39.73
2019-05-03T02:49:49.860Z,37.87
2019-05-03T02:52:36.472Z,40.23
2019-05-03T02:55:09.068Z,41.40
2019-05-03T02:57:39.094Z,38.83
2019-05-03T03:00:11.354Z,39.07
2019-05-03T03:02:41.477Z,40.67
2019-05-03T03:05:12.578Z,43.57
2019-05-03T03:07:45.964Z,40.43
2019-05-03T03:10:16.641Z,43.00
2019-05-03T03:12:49.669Z,42.70
2019-05-03T03:15:19.577Z,41.33
2019-05-03T03:17:55.803Z,42.57
2019-05-03T03:20:25.417Z,43.33
2019-05-03T03:22:58.042Z,44.67
2019-05-03T03:25:32.851Z,35.47
2019-05-03T03:28:05.363Z,39.43
2019-05-03T03:31:08.332Z,43.07
2019-05-03T03:33:40.219Z,44.50
2019-05-03T03:36:37.609Z,40.10
2019-05-03T03:38:41.406Z,40.80
2019-05-03T03:41:12.587Z,41.20
2019-05-03T03:43:46.268Z,39.90
2019-05-03T03:46:16.498Z,38.80
2019-05-03T03:48:47.109Z,45.67
2019-05-03T03:51:20.165Z,42.33
2019-05-03T03:53:55.463Z,41.20
2019-05-03T03:56:27.865Z,37.13
2019-05-03T03:58:57.753Z,41.20
2019-05-03T04:01:28.124Z,39.63
2019-05-03T04:03:58.601Z,42.30
2019-05-03T04:06:40.679Z,35.57
2019-05-03T04:09:10.647Z,39.53
2019-05-03T04:11:41.790Z,40.17
2019-05-03T04:14:16.172Z,40.17
2019-05-03T04:16:56.300Z,37.00
2019-05-03T04:19:29.870Z,37.77
2019-05-03T04:22:01.803Z,38.83
2019-05-03T04:24:35.000Z,36.83
2019-05-03T04:27:18.729Z,35.23
2019-05-03T04:29:40.339Z,35.03
2019-05-03T04:32:10.614Z,32.80
2019-05-03T04:34:40.873Z,34.33
2019-05-03T04:37:10.890Z,33.30
2019-05-03T04:39:40.937Z,37.87
2019-05-03T04:42:11.746Z,31.73
2019-05-03T04:44:41.629Z,31.80
2019-05-03T04:47:11.558Z,32.57
2019-05-03T04:49:41.496Z,34.10
2019-05-03T04:52:11.363Z,37.33
2019-05-03T04:54:45.066Z,30.50
2019-05-03T04:57:17.605Z,32.00
2019-05-03T04:59:46.071Z,33.50
2019-05-03T05:02:16.164Z,32.37
2019-05-03T05:04:46.524Z,35.33
2019-05-03T05:07:17.595Z,29.43
2019-05-03T05:09:47.572Z,28.67
2019-05-03T05:12:17.444Z,28.03
2019-05-03T05:14:47.400Z,27.63
2019-05-03T05:17:19.066Z,28.47
2019-05-03T05:19:54.902Z,29.37
2019-05-03T05:22:26.557Z,28.37
2019-05-03T05:24:57.813Z,29.27
2019-05-03T05:27:34.499Z,28.07
2019-05-03T05:30:06.298Z,28.43
2019-05-03T05:32:36.345Z,28.97
2019-05-03T05:35:07.233Z,27.57
2019-05-03T05:37:37.206Z,28.30
2019-05-03T05:40:07.537Z,27.73
2019-05-03T05:42:37.561Z,25.13
2019-05-03T05:45:07.846Z,24.53
2019-05-03T05:47:45.418Z,27.47
2019-05-03T05:50:22.940Z,27.93
2019-05-03T05:52:55.094Z,30.53
2019-05-03T05:55:34.332Z,29.53
2019-05-03T05:58:08.508Z,32.33
2019-05-03T06:00:40.192Z,29.73
2019-05-03T06:03:11.224Z,29.50
2019-05-03T06:05:41.121Z,29.10
2019-05-03T06:08:12.686Z,33.47
2019-05-03T06:10:45.121Z,32.23
2019-05-03T06:13:34.452Z,31.27
2019-05-03T06:16:08.958Z,33.27
2019-05-03T06:18:54.274Z,33.03
2019-05-03T06:21:47.662Z,31.70
2019-05-03T06:24:30.051Z,34.77
2019-05-03T06:27:05.051Z,30.43
2019-05-03T06:29:37.389Z,30.57
2019-05-03T06:32:12.294Z,29.60
2019-05-03T06:34:45.385Z,31.07
2019-05-03T06:37:16.585Z,33.07
2019-05-03T06:39:46.640Z,31.00
2019-05-03T06:42:19.297Z,30.50
2019-05-03T06:44:48.189Z,28.60
2019-05-03T06:47:18.067Z,31.67
2019-05-03T06:49:48.555Z,33.70
2019-05-03T06:52:19.866Z,30.50
2019-05-03T06:54:50.592Z,32.30
2019-05-03T06:57:20.594Z,31.73
2019-05-03T06:59:54.897Z,29.87
2019-05-03T07:02:29.060Z,33.37
2019-05-03T07:05:00.594Z,31.73
2019-05-03T07:07:40.724Z,32.37
2019-05-03T07:10:18.323Z,32.87
2019-05-03T07:13:02.037Z,22.63
2019-05-03T07:15:31.906Z,17.23
2019-05-03T07:18:01.789Z,13.30
2019-05-03T07:20:35.301Z,12.37
2019-05-03T07:23:05.273Z,9.00
2019-05-03T07:25:35.128Z,6.77
2019-05-03T07:28:05.045Z,6.60
2019-05-03T07:30:36.934Z,9.47
2019-05-03T07:33:10.602Z,9.73
2019-05-03T07:35:40.459Z,9.03
2019-05-03T07:38:10.309Z,9.43
2019-05-03T07:40:40.196Z,10.47
2019-05-03T07:43:10.125Z,9.23
2019-05-03T07:45:40.165Z,7.70
2019-05-03T07:48:10.097Z,9.07
2019-05-03T07:50:39.939Z,8.13
2019-05-03T07:53:09.824Z,10.27
2019-05-03T07:55:50.392Z,7.73
2019-05-03T07:58:30.588Z,8.90
2019-05-03T08:01:08.735Z,7.43
2019-05-03T08:03:34.822Z,7.47
2019-05-03T08:06:05.166Z,7.80
2019-05-03T08:08:35.527Z,7.47
2019-05-03T08:11:05.608Z,7.87
2019-05-03T08:13:35.763Z,6.93
2019-05-03T08:16:06.067Z,8.17
2019-05-03T08:18:37.167Z,6.33
2019-05-03T08:21:07.123Z,7.73
2019-05-03T08:23:37.052Z,6.93
2019-05-03T08:26:06.985Z,12.10
2019-05-03T08:28:36.845Z,6.90
2019-05-03T08:31:26.679Z,9.47
2019-05-03T08:34:15.354Z,6.50
2019-05-03T08:36:58.657Z,7.23
2019-05-03T08:39:28.491Z,6.83
2019-05-03T08:42:04.659Z,6.60
2019-05-03T08:44:35.358Z,7.93
2019-05-03T08:47:05.460Z,7.97
2019-05-03T08:49:35.337Z,8.93
2019-05-03T08:52:05.629Z,6.83
2019-05-03T08:54:36.653Z,8.97
2019-05-03T08:57:06.597Z,7.17
2019-05-03T08:59:36.512Z,7.00
2019-05-03T09:02:14.118Z,6.73
2019-05-03T09:04:42.839Z,8.93
2019-05-03T09:07:10.693Z,10.60
2019-05-03T09:09:42.348Z,8.43
2019-05-03T09:12:12.187Z,7.73
2019-05-03T09:14:45.727Z,7.37
2019-05-03T09:17:15.284Z,7.37
2019-05-03T09:19:45.525Z,6.70
2019-05-03T09:22:15.571Z,9.43
2019-05-03T09:24:45.667Z,7.77
2019-05-03T09:27:15.630Z,7.77
2019-05-03T09:29:46.131Z,8.03
2019-05-03T09:32:16.402Z,7.50
2019-05-03T09:34:47.336Z,8.50
2019-05-03T09:37:17.170Z,8.30
2019-05-03T09:39:47.061Z,7.27
2019-05-03T09:42:16.925Z,7.50
2019-05-03T09:44:46.863Z,7.23
2019-05-03T09:47:16.699Z,6.87
2019-05-03T09:49:46.561Z,7.37
2019-05-03T09:52:16.534Z,6.77
2019-05-03T09:54:48.073Z,6.00
2019-05-03T09:57:18.010Z,5.17
2019-05-03T09:59:57.140Z,5.27
2019-05-03T10:02:19.585Z,4.30
2019-05-03T10:04:49.449Z,4.30
2019-05-03T10:07:19.409Z,3.87
2019-05-03T10:09:49.309Z,3.73
2019-05-03T10:12:25.456Z,3.67
2019-05-03T10:14:55.147Z,3.37
2019-05-03T10:17:35.792Z,3.40
2019-05-03T10:20:08.595Z,2.20
2019-05-03T10:22:38.547Z,2.93
2019-05-03T10:25:09.558Z,1.60
2019-05-03T10:27:45.865Z,4.53
2019-05-03T10:30:19.575Z,6.10
2019-05-03T10:32:51.138Z,2.70
2019-05-03T10:35:21.097Z,2.10
2019-05-03T10:37:50.998Z,1.67
2019-05-03T10:40:27.590Z,1.77
2019-05-03T10:42:57.496Z,2.20
2019-05-03T10:45:28.093Z,1.90
2019-05-03T10:47:58.335Z,2.13
2019-05-03T10:50:28.757Z,2.43
2019-05-03T10:53:09.141Z,2.27
2019-05-03T10:55:41.749Z,1.57
2019-05-03T10:58:13.261Z,1.53
2019-05-03T11:00:52.206Z,1.33
2019-05-03T11:03:17.586Z,1.97
2019-05-03T11:05:47.443Z,2.40
2019-05-03T11:08:17.470Z,3.17
2019-05-03T11:10:47.307Z,2.03
2019-05-03T11:13:17.335Z,1.53
2019-05-03T11:15:47.255Z,1.40
2019-05-03T11:18:17.489Z,1.53
2019-05-03T11:20:48.343Z,1.40
2019-05-03T11:23:18.191Z,1.50
2019-05-03T11:25:48.141Z,1.50
2019-05-03T11:28:25.601Z,2.33
2019-05-03T11:31:01.922Z,2.57
2019-05-03T11:33:32.385Z,2.03
2019-05-03T11:36:10.021Z,2.00
2019-05-03T11:38:41.582Z,1.73
2019-05-03T11:41:11.567Z,1.97
2019-05-03T11:43:41.481Z,2.07
2019-05-03T11:46:11.436Z,2.00
2019-05-03T11:48:41.275Z,2.10
2019-05-03T11:51:11.131Z,1.60
2019-05-03T11:53:41.067Z,2.80
2019-05-03T11:56:10.932Z,2.17
2019-05-03T11:58:40.942Z,2.27
2019-05-03T12:01:16.989Z,2.20
2019-05-03T12:03:45.915Z,2.00
2019-05-03T12:06:16.070Z,2.27
2019-05-03T12:08:46.148Z,2.30
2019-05-03T12:11:16.125Z,2.13
2019-05-03T12:13:46.044Z,2.83
2019-05-03T12:16:24.241Z,2.60
2019-05-03T12:18:53.537Z,2.27
2019-05-03T12:21:20.671Z,3.17
2019-05-03T12:23:51.148Z,2.30
2019-05-03T12:26:21.932Z,2.40
2019-05-03T12:28:52.522Z,2.67
2019-05-03T12:31:33.492Z,2.33
2019-05-03T12:33:55.060Z,2.30
2019-05-03T12:36:26.125Z,2.97
2019-05-03T12:38:56.052Z,2.77
2019-05-03T12:41:25.987Z,2.20
2019-05-03T12:43:55.934Z,2.13
2019-05-03T12:46:26.835Z,3.73
2019-05-03T12:48:56.776Z,2.10
2019-05-03T12:51:26.695Z,2.43
2019-05-03T12:53:56.559Z,4.40
2019-05-03T12:56:32.681Z,2.67
2019-05-03T12:59:05.977Z,3.20
2019-05-03T13:01:55.691Z,3.27
2019-05-03T13:04:29.457Z,3.43
2019-05-03T13:07:05.405Z,4.03
2019-05-03T13:09:35.810Z,3.67
2019-05-03T13:12:07.152Z,3.10
2019-05-03T13:14:37.136Z,3.13
2019-05-03T13:17:07.105Z,3.50
2019-05-03T13:19:37.043Z,3.67
2019-05-03T13:22:07.877Z,3.50
2019-05-03T13:24:37.739Z,3.47
2019-05-03T13:27:07.624Z,4.23
2019-05-03T13:29:37.570Z,4.33
2019-05-03T13:32:07.504Z,4.43
2019-05-03T13:34:37.486Z,3.83
2019-05-03T13:37:07.411Z,3.67
2019-05-03T13:39:37.360Z,5.53
2019-05-03T13:42:07.434Z,10.10
2019-05-03T13:44:37.409Z,6.87
2019-05-03T13:47:07.356Z,5.10
2019-05-03T13:49:37.319Z,5.07
2019-05-03T13:52:07.253Z,4.83
2019-05-03T13:54:37.184Z,4.67
2019-05-03T13:57:07.112Z,5.47
2019-05-03T13:59:37.156Z,5.37
2019-05-03T14:02:15.085Z,4.87
2019-05-03T14:04:49.340Z,7.63
2019-05-03T14:07:10.308Z,4.77
2019-05-03T14:09:40.548Z,4.47
2019-05-03T14:12:10.545Z,4.57
2019-05-03T14:14:55.347Z,6.07
2019-05-03T14:17:26.327Z,4.70
2019-05-03T14:19:58.005Z,4.63
2019-05-03T14:22:29.568Z,6.63
2019-05-03T14:24:59.451Z,5.13
2019-05-03T14:27:29.387Z,6.60
2019-05-03T14:29:59.354Z,7.53
2019-05-03T14:32:29.288Z,5.20
2019-05-03T14:34:59.315Z,3.93
2019-05-03T14:37:29.162Z,4.50
2019-05-03T14:39:59.047Z,4.87
2019-05-03T14:42:28.984Z,5.93
2019-05-03T14:45:00.089Z,4.20
2019-05-03T14:47:31.200Z,4.67
2019-05-03T14:50:01.043Z,5.37
2019-05-03T14:52:30.946Z,3.97
2019-05-03T14:55:02.458Z,4.87
2019-05-03T14:57:38.475Z,5.53
2019-05-03T15:00:19.813Z,4.47
2019-05-03T15:02:55.325Z,4.00
2019-05-03T15:05:25.989Z,5.17
2019-05-03T15:07:56.008Z,4.40
2019-05-03T15:10:26.171Z,4.77
2019-05-03T15:12:56.096Z,5.17
2019-05-03T15:15:28.725Z,6.10
2019-05-03T15:17:57.659Z,3.70
2019-05-03T15:20:27.542Z,4.67
2019-05-03T15:22:57.447Z,4.00
2019-05-03T15:25:27.315Z,4.47
2019-05-03T15:27:57.194Z,5.23
2019-05-03T15:30:27.154Z,5.30
2019-05-03T15:33:00.726Z,5.50
2019-05-03T15:35:28.658Z,5.50
2019-05-03T15:37:58.599Z,5.13
2019-05-03T15:40:28.521Z,5.77
2019-05-03T15:43:00.023Z,5.07
2019-05-03T15:45:40.448Z,5.03
2019-05-03T15:48:11.982Z,3.87
2019-05-03T15:50:41.885Z,4.60
2019-05-03T15:53:11.842Z,4.53
2019-05-03T15:55:42.740Z,4.40
2019-05-03T15:58:12.613Z,4.10
2019-05-03T16:00:44.417Z,4.07
2019-05-03T16:03:14.524Z,4.10
2019-05-03T16:05:44.801Z,4.23
2019-05-03T16:08:15.421Z,4.33
2019-05-03T16:10:45.733Z,5.83
2019-05-03T16:13:15.805Z,5.00
2019-05-03T16:15:45.744Z,6.00
2019-05-03T16:18:15.731Z,5.47
2019-05-03T16:20:45.631Z,5.77
2019-05-03T16:23:15.581Z,5.97
2019-05-03T16:25:45.478Z,5.43
2019-05-03T16:28:17.000Z,4.67
2019-05-03T16:30:49.652Z,7.23
2019-05-03T16:33:27.147Z,5.63
2019-05-03T16:35:51.212Z,6.47
2019-05-03T16:38:21.692Z,6.53
2019-05-03T16:40:51.519Z,5.37
2019-05-03T16:43:21.393Z,5.13
2019-05-03T16:45:51.246Z,6.63
2019-05-03T16:48:21.092Z,5.57
2019-05-03T16:50:50.956Z,4.87
2019-05-03T16:53:21.890Z,6.83
2019-05-03T16:55:51.824Z,7.97
2019-05-03T16:58:21.753Z,6.23
2019-05-03T17:00:51.594Z,6.33
2019-05-03T17:03:37.952Z,5.27
2019-05-03T17:06:05.653Z,5.63
2019-05-03T17:08:45.162Z,6.50
2019-05-03T17:11:16.548Z,6.73
2019-05-03T17:13:47.978Z,6.43
2019-05-03T17:16:18.097Z,6.07
2019-05-03T17:18:48.048Z,5.97
2019-05-03T17:21:17.922Z,6.13
2019-05-03T17:23:47.928Z,5.87
2019-05-03T17:26:17.901Z,8.10
2019-05-03T17:28:48.681Z,6.50
2019-05-03T17:31:18.532Z,7.27
2019-05-03T17:33:53.263Z,6.77
2019-05-03T17:36:20.013Z,5.63
2019-05-03T17:38:51.554Z,5.13
2019-05-03T17:41:29.106Z,6.03
2019-05-03T17:44:00.688Z,6.47
2019-05-03T17:46:30.620Z,6.97
2019-05-03T17:49:00.513Z,7.57
2019-05-03T17:51:48.819Z,5.37
2019-05-03T17:54:26.278Z,6.67
2019-05-03T17:56:58.801Z,4.97
2019-05-03T17:59:30.313Z,6.70
2019-05-03T18:02:10.996Z,5.13
2019-05-03T18:04:42.576Z,6.47
2019-05-03T18:07:14.947Z,5.03
2019-05-03T18:09:46.654Z,5.50
2019-05-03T18:12:16.527Z,5.83
2019-05-03T18:14:46.548Z,7.20
2019-05-03T18:17:16.642Z,6.90
2019-05-03T18:19:47.862Z,5.47
2019-05-03T18:22:17.980Z,7.23
2019-05-03T18:24:47.953Z,6.87
2019-05-03T18:27:17.893Z,6.30
2019-05-03T18:29:47.865Z,10.77
2019-05-03T18:32:17.893Z,9.43
2019-05-03T18:34:47.771Z,17.83
2019-05-03T18:37:17.644Z,8.53
2019-05-03T18:39:49.022Z,7.10
2019-05-03T18:42:30.758Z,8.63
2019-05-03T18:45:09.309Z,6.43
2019-05-03T18:47:39.405Z,8.67
2019-05-03T18:50:09.568Z,7.90
2019-05-03T18:52:40.540Z,7.70
2019-05-03T18:55:10.644Z,8.10
2019-05-03T18:57:40.551Z,6.47
2019-05-03T19:00:11.073Z,7.23
2019-05-03T19:02:44.400Z,8.10
2019-05-03T19:05:18.728Z,8.23
2019-05-03T19:08:00.116Z,7.60
2019-05-03T19:10:35.397Z,9.17
2019-05-03T19:13:07.075Z,8.70
2019-05-03T19:15:37.331Z,8.63
2019-05-03T19:18:12.340Z,6.27
2019-05-03T19:20:42.347Z,7.83
2019-05-03T19:23:12.344Z,6.00
2019-05-03T19:25:46.816Z,6.27
2019-05-03T19:28:14.093Z,6.93
2019-05-03T19:30:46.032Z,7.10
2019-05-03T19:33:16.017Z,6.77
2019-05-03T19:35:46.030Z,6.97
2019-05-03T19:38:16.274Z,7.07
2019-05-03T19:40:46.307Z,8.47
2019-05-03T19:43:16.295Z,7.83
2019-05-03T19:45:46.312Z,9.80
2019-05-03T19:48:16.960Z,7.13
2019-05-03T19:50:48.301Z,10.20
2019-05-03T19:53:30.057Z,8.97
2019-05-03T19:56:01.291Z,8.83
2019-05-03T19:58:31.520Z,11.73
2019-05-03T20:01:05.638Z,10.17
2019-05-03T20:03:45.502Z,9.37
2019-05-03T20:06:19.191Z,11.67
2019-05-03T20:08:55.397Z,12.40
2019-05-03T20:11:29.551Z,11.97
2019-05-03T20:14:00.725Z,11.23
2019-05-03T20:16:31.804Z,10.77
2019-05-03T20:19:17.745Z,8.60
2019-05-03T20:21:39.185Z,11.37
2019-05-03T20:24:14.873Z,12.03
2019-05-03T20:26:46.694Z,9.67
2019-05-03T20:29:19.431Z,8.60
2019-05-03T20:31:51.640Z,7.93
2019-05-03T20:34:24.837Z,9.37
2019-05-03T20:36:55.430Z,8.30
2019-05-03T20:39:27.688Z,6.83
2019-05-03T20:41:59.817Z,8.83
2019-05-03T20:44:41.911Z,9.03
2019-05-03T20:47:25.556Z,7.83
2019-05-03T20:50:16.750Z,7.27
2019-05-03T20:52:49.222Z,9.50
2019-05-03T20:55:20.708Z,8.87
2019-05-03T20:57:54.915Z,8.63
2019-05-03T21:00:32.293Z,13.77
2019-05-03T21:03:06.244Z,8.53
2019-05-03T21:05:40.236Z,9.80
2019-05-03T21:08:14.699Z,9.67
2019-05-03T21:10:45.133Z,8.83
2019-05-03T21:13:17.662Z,8.77
2019-05-03T21:16:06.596Z,10.03
2019-05-03T21:18:39.408Z,9.00
2019-05-03T21:21:12.310Z,8.70
2019-05-03T21:23:44.970Z,9.53
2019-05-03T21:26:16.656Z,10.40
2019-05-03T21:28:46.843Z,11.43
2019-05-03T21:31:16.746Z,9.80
2019-05-03T21:33:46.733Z,11.60
2019-05-03T21:36:16.703Z,10.37
2019-05-03T21:38:46.748Z,8.53
2019-05-03T21:41:16.655Z,11.03
2019-05-03T21:43:46.587Z,11.73
2019-05-03T21:46:27.368Z,9.80
2019-05-03T21:48:58.945Z,15.60
2019-05-03T21:51:29.041Z,11.67
2019-05-03T21:53:59.000Z,12.23
2019-05-03T21:56:28.835Z,10.70
2019-05-03T21:58:58.728Z,11.60
2019-05-03T22:01:28.878Z,13.07
2019-05-03T22:03:58.804Z,12.13
2019-05-03T22:06:28.696Z,11.27
2019-05-03T22:08:58.608Z,10.47
2019-05-03T22:11:29.626Z,14.17
2019-05-03T22:14:01.731Z,11.63
2019-05-03T22:16:45.730Z,10.97
2019-05-03T22:19:17.963Z,10.73
2019-05-03T22:22:05.445Z,10.73
2019-05-03T22:24:42.106Z,9.70
2019-05-03T22:27:15.271Z,12.10
2019-05-03T22:29:45.127Z,9.73
2019-05-03T22:32:15.554Z,9.67
2019-05-03T22:34:45.723Z,9.80
2019-05-03T22:37:16.663Z,8.63
2019-05-03T22:39:47.928Z,12.13
2019-05-03T22:42:18.007Z,8.00
2019-05-03T22:44:47.871Z,12.53
2019-05-03T22:47:17.786Z,9.47
2019-05-03T22:49:47.660Z,8.27
2019-05-03T22:52:17.562Z,8.83
2019-05-03T22:54:47.437Z,8.77
2019-05-03T22:57:17.444Z,17.53
2019-05-03T22:59:48.363Z,15.93
2019-05-03T23:02:18.353Z,9.57
2019-05-03T23:04:49.261Z,9.07
2019-05-03T23:07:19.170Z,13.07
2019-05-03T23:09:49.146Z,10.37
2019-05-03T23:12:19.054Z,8.37
2019-05-03T23:14:48.980Z,10.70
2019-05-03T23:17:18.811Z,8.73
2019-05-03T23:19:50.400Z,10.17
2019-05-03T23:22:21.893Z,11.27
2019-05-03T23:24:51.832Z,8.87
2019-05-03T23:27:21.749Z,12.33
2019-05-03T23:29:51.628Z,8.90
2019-05-03T23:32:21.541Z,10.30
2019-05-03T23:34:51.519Z,10.40
2019-05-03T23:37:21.465Z,9.30
2019-05-03T23:39:51.344Z,9.70
2019-05-03T23:42:21.262Z,10.57
2019-05-03T23:44:51.104Z,10.77
2019-05-03T23:47:28.224Z,10.30
2019-05-03T23:49:58.151Z,10.90
2019-05-03T23:52:29.627Z,9.50
2019-05-03T23:55:05.787Z,11.07
2019-05-03T23:57:35.805Z,11.53
